createdAt,value
2018-09-25T00:05:57.563Z,43.42
2018-09-25T00:16:05.963Z,42.94
2018-09-25T00:26:14.368Z,43.59
2018-09-25T00:36:22.763Z,42.68
2018-09-25T00:46:31.772Z,42.88
2018-09-25T00:56:40.556Z,43.04
2018-09-25T01:06:49.052Z,43.24
2018-09-25T01:16:58.397Z,42.90
2018-09-25T01:27:07.141Z,43.45
2018-09-25T01:37:16.587Z,43.08
2018-09-25T01:47:26.643Z,43.71
2018-09-25T01:57:37.223Z,43.24
2018-09-25T02:07:45.869Z,43.62
2018-09-25T02:17:55.241Z,43.65
2018-09-25T02:28:04.403Z,43.01
2018-09-25T02:38:12.898Z,43.67
2018-09-25T02:48:21.939Z,43.54
2018-09-25T02:58:30.798Z,43.55
2018-09-25T03:08:40.244Z,43.26
2018-09-25T03:18:50.233Z,43.24
2018-09-25T03:28:58.672Z,43.10
2018-09-25T03:39:07.533Z,42.84
2018-09-25T03:49:16.109Z,43.67
2018-09-25T03:59:24.540Z,43.67
2018-09-25T04:09:32.942Z,43.32
2018-09-25T04:19:42.033Z,43.32
2018-09-25T04:29:50.559Z,43.16
2018-09-25T04:39:59.097Z,43.19
2018-09-25T04:50:07.613Z,42.91
2018-09-25T05:00:17.033Z,43.77
2018-09-25T05:10:26.308Z,43.06
2018-09-25T05:20:35.025Z,43.17
2018-09-25T05:30:43.568Z,42.66
2018-09-25T05:40:52.492Z,43.58
2018-09-25T05:51:01.307Z,42.82
2018-09-25T06:01:09.669Z,43.19
2018-09-25T06:11:18.225Z,42.75
2018-09-25T06:21:26.897Z,42.45
2018-09-25T06:31:35.379Z,42.76
2018-09-25T06:41:43.953Z,42.81
2018-09-25T06:51:52.565Z,41.92
2018-09-25T07:02:01.151Z,41.59
2018-09-25T07:12:09.678Z,43.21
2018-09-25T07:22:17.997Z,42.40
2018-09-25T07:32:26.440Z,41.38
2018-09-25T07:42:34.831Z,41.45
2018-09-25T07:52:43.215Z,42.05
2018-09-25T08:02:51.882Z,41.08
2018-09-25T08:13:00.348Z,41.53
2018-09-25T08:23:09.038Z,40.78
2018-09-25T08:33:17.564Z,41.09
2018-09-25T08:43:26.092Z,38.22
2018-09-25T08:53:34.413Z,41.46
2018-09-25T09:03:43.184Z,41.45
2018-09-25T09:13:51.739Z,39.93
2018-09-25T09:24:00.104Z,40.77
2018-09-25T09:34:08.519Z,41.85
2018-09-25T09:44:17.194Z,40.75
2018-09-25T09:54:25.636Z,41.37
2018-09-25T10:04:34.125Z,39.49
2018-09-25T10:14:42.676Z,38.76
2018-09-25T10:24:51.120Z,38.22
2018-09-25T10:34:59.513Z,36.82
2018-09-25T10:45:08.180Z,38.15
2018-09-25T10:55:16.640Z,36.91
2018-09-25T11:05:24.945Z,36.94
2018-09-25T11:15:33.349Z,36.92
2018-09-25T11:25:42.976Z,36.99
2018-09-25T11:35:51.370Z,36.56
2018-09-25T11:45:59.852Z,37.92
2018-09-25T11:56:08.197Z,36.47
2018-09-25T12:06:16.636Z,37.12
2018-09-25T12:16:25.037Z,34.46
2018-09-25T12:26:33.496Z,35.35
2018-09-25T12:36:42.924Z,34.46
2018-09-25T12:46:51.510Z,35.87
2018-09-25T12:56:59.937Z,33.88
2018-09-25T13:07:08.420Z,34.52
2018-09-25T13:17:16.897Z,34.70
2018-09-25T13:27:25.244Z,33.73
2018-09-25T13:37:33.832Z,34.18
2018-09-25T13:47:42.148Z,35.07
2018-09-25T13:57:50.769Z,35.09
2018-09-25T14:07:59.168Z,34.07
2018-09-25T14:18:11.585Z,34.33
2018-09-25T14:28:19.994Z,34.30
2018-09-25T14:38:28.566Z,34.89
2018-09-25T14:48:37.076Z,34.10
2018-09-25T14:58:45.506Z,34.31
2018-09-25T15:08:54.171Z,34.25
2018-09-25T15:19:02.602Z,34.05
2018-09-25T15:29:11.132Z,35.05
2018-09-25T15:39:19.710Z,35.42
2018-09-25T15:49:28.042Z,36.51
2018-09-25T15:59:36.456Z,34.80
2018-09-25T16:09:44.748Z,33.32
2018-09-25T16:19:53.423Z,35.66
2018-09-25T16:30:01.963Z,36.47
2018-09-25T16:40:10.276Z,35.97
2018-09-25T16:50:18.620Z,36.11
2018-09-25T17:00:27.083Z,36.50
2018-09-25T17:10:35.724Z,36.02
2018-09-25T17:20:44.033Z,36.69
2018-09-25T17:30:52.436Z,37.19
2018-09-25T17:41:07.839Z,37.58
2018-09-25T17:51:16.207Z,37.54
2018-09-25T18:01:24.448Z,38.16
2018-09-25T18:11:32.814Z,37.66
2018-09-25T18:21:41.359Z,37.08
2018-09-25T18:31:49.759Z,36.17
2018-09-25T18:41:58.044Z,36.34
2018-09-25T18:52:06.503Z,35.36
2018-09-25T19:02:15.862Z,35.55
2018-09-25T19:12:24.508Z,38.98
2018-09-25T19:22:33.105Z,38.95
2018-09-25T19:32:41.509Z,39.65
2018-09-25T19:42:50.060Z,39.57
2018-09-25T19:52:58.706Z,39.74
2018-09-25T20:03:07.064Z,40.16
2018-09-25T20:13:15.530Z,40.31
2018-09-25T20:23:23.944Z,40.12
2018-09-25T20:33:32.512Z,39.62
2018-09-25T20:43:41.436Z,40.77
2018-09-25T20:53:50.093Z,40.50
2018-09-25T21:03:58.672Z,40.49
2018-09-25T21:14:07.455Z,40.99
2018-09-25T21:24:15.911Z,40.61
2018-09-25T21:34:24.321Z,40.62
2018-09-25T21:44:32.721Z,40.42
2018-09-25T21:54:41.344Z,41.10
2018-09-25T22:04:50.328Z,41.42
2018-09-25T22:14:59.500Z,41.27
2018-09-25T22:25:08.706Z,41.02
2018-09-25T22:35:18.094Z,41.13
2018-09-25T22:45:27.419Z,41.56
2018-09-25T22:55:39.000Z,41.10
2018-09-25T23:05:48.043Z,41.15
2018-09-25T23:15:57.108Z,41.59
2018-09-25T23:26:05.676Z,41.14
2018-09-25T23:36:15.069Z,41.77
2018-09-25T23:46:26.145Z,41.60
2018-09-25T23:56:34.724Z,41.13
